Tiempo atmosférico en la estación meteorológica de Ainsa, Huesca (610 m.)



Fecha
DESCASC
Temp. máxima en grados centígrados (hora)
DESCASC
Temp. mínima en grados centígrados (hora)
DESCASC
Temp. media en grados centígrados
DESCASC
Racha de viento máxima en m/sg (hora)
DESCASC
Velocidad máxima media en intervalos de 10 minutos(hora)
DESCASC
Precipitaciones diarias en mm
DESCASC
Precipitaciones de 00:00 a 06:00 en mm
DESCASC
Precipitaciones de 06:00 a 12:00 en mm
DESCASC
Precipitaciones de 12:00 a 18:00 en mm
DESCASC
Precipitaciones de 18:00 a 24:00 en mm
DESCASC
10-07-2020 32.5 (16:10) 18.5 (05:00) 25.5 11.11 (16:30) 6.94 (15:00) 0 0 0 0 0
09-07-2020 32.7 (17:20) 19.3 (05:10) 26 8.06 (18:30) 5.83 (14:20) 0 0 0 0 0
08-07-2020 33.3 (16:40) 15.2 (06:30) 24.2 9.72 (20:20) 7.22 (20:20) 0 0 0 0 0
07-07-2020 29.2 (16:20) 14.4 (07:20) 21.8 8.33 (19:40) 6.94 (17:40) 0 0 0 0 0
06-07-2020 33.8 (18:50) 16.5 (00:00) 25.1 8.61 (19:20) 6.11 (15:10) 0 0 0 0 0
05-07-2020 30.8 (16:40) 14.1 (00:00) 22.4 7.78 (16:20) 6.39 (16:30) 0 0 0 0 0
04-07-2020 27.5 (16:50) 12.2 (00:00) 19.8 7.22 (13:20) 5.83 (18:00) 0 0 0 0 0
03-07-2020 27.6 (20:30) 15.9 (06:20) 21.8 9.17 (14:30) 7.22 (13:40) 0.2 0.2 0 0 0
02-07-2020 28 (13:50) 17.6 (00:00) 22.8 10.28 (14:30) 6.67 (14:10) 1.4 0 0.2 1.2 0
01-07-2020 31.9 (15:00) 18.7 (00:00) 25.3 10 (15:50) 6.67 (15:50) 0.2 0.2 0 0 0
30-06-2020 30.1 (17:10) 20.2 (00:00) 25.2 7.22 (17:20) 5.83 (17:40) 0 0 0 0 0
29-06-2020 30.2 (20:50) 17.6 (00:00) 23.9 7.78 (23:20) 5 (14:40) 0 0 0 0 0
28-06-2020 29.6 (16:20) 17.8 (00:00) 23.7 4.72 (12:40) 3.61 (23:59) 0 0 0 0 0
27-06-2020 29.3 (15:30) 14.1 (00:00) 21.7 6.11 (16:20) 4.44 (16:20) 0.2 0 0.2 0 0
26-06-2020 29.4 (16:30) 15.9 (00:00) 22.6 15.28 (19:10) 8.89 (18:50) 4.2 1.6 0 0 2.6
25-06-2020 31.4 (16:50) 14 (00:00) 22.7 12.5 (23:59) 8.06 (23:59) 0.8 0 0 0 0.8
24-06-2020 30 (15:10) 16.7 (00:00) 23.4 15.28 (16:40) 10.28 (16:40) 4.8 0 0 1.8 3
23-06-2020 30.2 (17:00) 15 (00:00) 22.6 6.67 (17:40) 5.28 (17:30) 0 0 0 0 0
22-06-2020 29.1 (16:00) 14.3 (00:00) 21.7 9.72 (18:50) 7.22 (19:20) 0 0 0 0 0
21-06-2020 31.9 (17:10) 11.9 (00:00) 21.9 10.56 (19:50) 7.22 (20:50) 0 0 0 0 0
20-06-2020 28.4 (19:00) 14.2 (00:00) 21.3 10 (15:20) 8.06 (15:20) 0 0 0 0 0
19-06-2020 23.9 (16:00) 13.7 (00:00) 18.8 5.28 (20:50) 3.89 (19:30) 4.8 0 4.8 0 0
18-06-2020 22.2 (19:20) 10.9 (00:00) 16.6 6.67 (15:00) 4.44 (15:00) 0.6 0 0.2 0.4 0
17-06-2020 23 (18:30) 10.1 (00:00) 16.6 9.17 (15:40) 6.67 (19:00) 0 0 0 0 0
16-06-2020 18.6 (17:10) 13.5 (00:00) 16.1 5.28 (07:10) 4.17 (07:10) 3.2 0.2 1.6 1.2 0.2
15-06-2020 25 (16:50) 11.7 (00:00) 18.3 11.94 (17:50) 8.06 (18:00) 0 0 0 0 0
14-06-2020 22.6 (17:10) 10.3 (00:00) 16.5 7.22 (19:50) 4.72 (19:50) 0 0 0 0 0
13-06-2020 22.4 (18:20) 9.3 (00:00) 15.8 9.72 (19:30) 6.67 (17:30) 1.8 1.8 0 0 0
12-06-2020 19.9 (17:40) 11.6 (00:00) 15.8 8.89 (12:10) 6.11 (14:30) 6 4.2 0 0 1.8

Gráficas

Temp. máximas Temp. mínimas Temp. medias Precipitaciones Rachas de viento máximas Velocidades máximas media en intervalos de 10 minutos

Datos horarios

Fecha y hora oficial Temperatura (ºC) Velocidad del viento (km/h) Dirección del viento Racha (km/h) Dirección de racha Precipitación (mm) Presión (hPa) Tendencia (hPa) Humedad (%)
2020-07-11 23:00:00 25.1 2 Nordeste 14 Sudeste 0 -- -- 59
2020-07-11 22:00:00 25.8 10 Sudeste 20 Sudeste 0 -- -- 60
2020-07-11 21:00:00 27.5 15 Sudeste 28 Sudeste 0 -- -- 55
2020-07-11 20:00:00 27.9 15 Sudeste 27 Este 0 -- -- 51
2020-07-11 19:00:00 28.3 19 Sudeste 30 Sudeste 0 -- -- 53
2020-07-11 18:00:00 30.2 23 Sudeste 32 Sudeste 0 -- -- 46
2020-07-11 17:00:00 29.5 25 Sudeste 32 Sudeste 0 -- -- 48
2020-07-11 16:00:00 30.1 21 Sudeste 32 Sudeste 0 -- -- 47
2020-07-11 15:00:00 29.5 24 Sudeste 32 Sudeste 0 -- -- 49
2020-07-11 14:00:00 29.2 20 Sudeste 24 Sudeste 0 -- -- 48
2020-07-11 13:00:00 28.4 18 Sudeste 23 Sudeste 0 -- -- 50
2020-07-11 12:00:00 27.3 13 Sudeste 18 Sudeste 0 -- -- 49
2020-07-11 11:00:00 25.3 13 Sudeste 21 Sudeste 0 -- -- 57
2020-07-11 10:00:00 22.9 7 Este 12 Sudeste 0 -- -- 64
2020-07-11 09:00:00 19.8 0 Calma 5 Norte 0 -- -- 75
2020-07-11 08:00:00 17.1 0 Calma 8 Norte 0 -- -- 84
2020-07-11 07:00:00 16.8 4 Noroeste 8 Noroeste 0 -- -- 83
2020-07-11 06:00:00 17.4 4 Oeste 6 Noroeste 0 -- -- 79
2020-07-11 05:00:00 17.9 4 Norte 10 Norte 0 -- -- 79
2020-07-11 04:00:00 18.3 5 Oeste 13 Norte 0 -- -- 76
2020-07-11 03:00:00 18.9 8 Noroeste 12 Noroeste 0 -- -- 74
2020-07-11 02:00:00 19.6 8 Noroeste 15 Norte 0 -- -- 72
2020-07-11 01:00:00 20.4 9 Norte 16 Norte 0 -- -- 70
2020-07-11 00:00:00 21.7 5 Noroeste 15 Norte 0 -- -- 62
2020-07-10 23:00:00 23 12 Norte 15 Norte 0 -- -- 58
2020-07-10 22:00:00 24.7 9 Sur 25 Este 0 -- -- 50
2020-07-10 21:00:00 26.8 12 Este 23 Este 0 -- -- 47
2020-07-10 20:00:00 29.3 6 Este 20 Norte 0 -- -- 41
2020-07-10 19:00:00 29.2 10 Norte 19 Sur 0 -- -- 41
2020-07-10 18:00:00 29.9 12 Sur 30 Sudoeste 0 -- -- 39
2020-07-10 17:00:00 30.7 19 Sudeste 40 Sur 0 -- -- 36
2020-07-10 16:00:00 31.7 19 Sudeste 37 Sudeste 0 -- -- 38
2020-07-10 15:00:00 31 25 Sudeste 32 Sudeste 0 -- -- 40
2020-07-10 14:00:00 31.6 14 Sudeste 24 Sur 0 -- -- 40
2020-07-10 13:00:00 30.7 13 Sudeste 21 Sudeste 0 -- -- 45
2020-07-10 12:00:00 29 8 Sudeste 13 Sudeste 0 -- -- 54
2020-07-10 11:00:00 26.5 5 Este 12 Nordeste 0 -- -- 62
2020-07-10 10:00:00 24.3 3 Oeste 9 Oeste 0 -- -- 68
2020-07-10 09:00:00 20.9 2 Oeste 9 Oeste 0 -- -- 79
2020-07-10 08:00:00 18.7 6 Oeste 13 Noroeste 0 -- -- 85
2020-07-10 07:00:00 18.7 7 Oeste 14 Oeste 0 -- -- 84
2020-07-10 06:00:00 18.5 8 Noroeste 11 Noroeste 0 -- -- 84
2020-07-10 05:00:00 18.5 8 Noroeste 14 Oeste 0 -- -- 85
2020-07-10 04:00:00 19.2 8 Oeste 16 Oeste 0 -- -- 81
2020-07-10 03:00:00 20 15 Oeste 22 Oeste 0 -- -- 81
2020-07-10 02:00:00 20.4 9 Oeste 17 Nordeste 0 -- -- 78
2020-07-10 01:00:00 20.7 9 Norte 18 Oeste 0 -- -- 73
2020-07-10 00:00:00 21.5 6 Noroeste 14 Noroeste 0 -- -- 73
2020-07-09 23:00:00 22.4 6 Noroeste 9 Noroeste 0 -- -- 73
2020-07-09 22:00:00 23.5 5 Noroeste 10 Oeste 0 -- -- 68
2020-07-09 21:00:00 25.1 6 Noroeste 15 Oeste 0 -- -- 58
2020-07-09 20:00:00 26.1 14 Oeste 26 Oeste 0 -- -- 57
2020-07-09 19:00:00 26 14 Oeste 29 Oeste 0 -- -- 54
2020-07-09 18:00:00 29.2 20 Oeste 28 Oeste 0 -- -- 45
2020-07-09 17:00:00 31.9 13 Sur 23 Sudeste 0 -- -- 44
2020-07-09 16:00:00 32.5 16 Sudeste 23 Sudeste 0 -- -- 43
2020-07-09 15:00:00 32.1 19 Sudeste 29 Sudeste 0 -- -- 44
2020-07-09 14:00:00 31 18 Sudeste 24 Sudeste 0 -- -- 43
2020-07-09 13:00:00 31 10 Sudeste 16 Sudeste 0 -- -- 45
2020-07-09 12:00:00 29.3 8 Sudeste 21 Sudeste 0 -- -- 53
2020-07-09 11:00:00 26 9 Sur 14 Sudoeste 0 -- -- 58
2020-07-09 10:00:00 24.4 5 Norte 14 Nordeste 0 -- -- 62
2020-07-09 09:00:00 22.3 7 Sudoeste 15 Oeste 0 -- -- 70
2020-07-09 08:00:00 20.3 10 Norte 21 Norte 0 -- -- 74
2020-07-09 07:00:00 19.3 7 Este 16 Este 0 -- -- 77
2020-07-09 06:00:00 19.5 11 Este 22 Sur 0 -- -- 76
2020-07-09 05:00:00 19.5 13 Oeste 19 Oeste 0 -- -- 74
2020-07-09 04:00:00 20 6 Este 12 Oeste 0 -- -- 72
2020-07-09 03:00:00 21 8 Oeste 14 Oeste 0 -- -- 68
2020-07-09 02:00:00 21.2 10 Noroeste 17 Norte 0 -- -- 69
2020-07-09 01:00:00 22 8 Noroeste 12 Noroeste 0 -- -- 67
2020-07-09 00:00:00 23.1 10 Noroeste 16 Oeste 0 -- -- 61
2020-07-08 23:00:00 25 8 Nordeste 18 Sudeste 0 -- -- 55
2020-07-08 22:00:00 26.4 11 Sudeste 25 Sur 0 -- -- 50
2020-07-08 21:00:00 27.8 22 Sur 35 Sudeste 0 -- -- 47
2020-07-08 20:00:00 29.9 16 Sur 32 Sur 0 -- -- 44
2020-07-08 19:00:00 31.1 21 Sudeste 30 Sudeste 0 -- -- 43
2020-07-08 18:00:00 32.2 20 Sudeste 26 Sudeste 0 -- -- 38
2020-07-08 17:00:00 32.9 10 Sudeste 24 Sudeste 0 -- -- 39
2020-07-08 16:00:00 32.2 10 Sudoeste 19 Sudoeste 0 -- -- 40
2020-07-08 15:00:00 30.6 12 Este 27 Sudeste 0 -- -- 42
2020-07-08 14:00:00 30.1 20 Sudeste 24 Sudeste 0 -- -- 43
2020-07-08 13:00:00 29 9 Sudeste 15 Sudeste 0 -- -- 41
2020-07-08 12:00:00 27.6 11 Sudeste 18 Sudeste 0 -- -- 48
2020-07-08 11:00:00 25.1 6 Este 11 Sudeste 0 -- -- 57
2020-07-08 10:00:00 22 4 Sudeste 9 Sudeste 0 -- -- 66
2020-07-08 09:00:00 19 4 Norte 9 Nordeste 0 -- -- 75
2020-07-08 08:00:00 16.1 4 Noroeste 8 Oeste 0 -- -- 82
2020-07-08 07:00:00 15.2 4 Noroeste 9 Norte 0 -- -- 84
2020-07-08 06:00:00 15.9 3 Oeste 9 Noroeste 0 -- -- 82
2020-07-08 05:00:00 16.2 6 Oeste 12 Oeste 0 -- -- 79
2020-07-08 04:00:00 16.8 5 Oeste 15 Oeste 0 -- -- 78
2020-07-08 03:00:00 17.3 7 Oeste 11 Noroeste 0 -- -- 77
2020-07-08 02:00:00 18.1 8 Oeste 10 Noroeste 0 -- -- 75
2020-07-08 01:00:00 19.1 8 Noroeste 13 Oeste 0 -- -- 73
2020-07-08 00:00:00 19.9 9 Noroeste 13 Oeste 0 -- -- 74
2020-07-07 23:00:00 21.3 9 Noroeste 12 Oeste 0 -- -- 69
2020-07-07 22:00:00 24.3 7 Norte 20 Sudeste 0 -- -- 57
2020-07-07 21:00:00 26.2 15 Sudeste 28 Sudeste 0 -- -- 51
2020-07-07 20:00:00 26.8 22 Sudeste 30 Sudeste 0 -- -- 52
2020-07-07 19:00:00 27.9 21 Sudeste 27 Sudeste 0 -- -- 49
2020-07-07 18:00:00 28.5 21 Sudeste 29 Sudeste 0 -- -- 46
2020-07-07 17:00:00 28.4 23 Sudeste 28 Sudeste 0 -- -- 47
2020-07-07 16:00:00 28.7 18 Sudeste 24 Sudeste 0 -- -- 46
2020-07-07 15:00:00 28.3 18 Sudeste 26 Sudeste 0 -- -- 47
2020-07-07 14:00:00 27.4 17 Sudeste 24 Sudeste 0 -- -- 48
2020-07-07 13:00:00 26.4 17 Sudeste 21 Sudeste 0 -- -- 50
2020-07-07 12:00:00 25.1 11 Sudeste 16 Sudeste 0 -- -- 57
2020-07-07 11:00:00 22.7 7 Sudeste 13 Sudeste 0 -- -- 61
2020-07-07 10:00:00 20.2 6 Este 12 Este 0 -- -- 68
2020-07-07 09:00:00 17.9 5 Este 10 Este 0 -- -- 74
2020-07-07 08:00:00 15.1 2 Noroeste 5 Noroeste 0 -- -- 80
2020-07-07 07:00:00 14.8 4 Norte 9 Norte 0 -- -- 80
2020-07-07 06:00:00 15.4 7 Norte 10 Norte 0 -- -- 76
2020-07-07 05:00:00 16.8 0 Calma 5 Oeste 0 -- -- 74
2020-07-07 04:00:00 18 2 Sudoeste 6 Este 0 -- -- 71
2020-07-07 03:00:00 19.5 3 Este 7 Oeste 0 -- -- 67
2020-07-07 02:00:00 20.7 0 Calma 15 Oeste 0 -- -- 56
2020-07-07 01:00:00 22 11 Oeste 18 Oeste 0 -- -- 50
2020-07-07 00:00:00 23.3 16 Oeste 20 Oeste 0 -- -- 50
2020-07-06 23:00:00 24.6 15 Oeste 20 Oeste 0 -- -- 48
2020-07-06 22:00:00 26.2 15 Oeste 28 Oeste 0 -- -- 46
2020-07-06 21:00:00 29.3 20 Oeste 31 Oeste 0 -- -- 41
2020-07-06 20:00:00 32.2 17 Oeste 31 Oeste 0 -- -- 38
2020-07-06 19:00:00 33.7 19 Oeste 28 Sudoeste 0 -- -- 36
2020-07-06 18:00:00 33.6 13 Sudeste 22 Sudeste 0 -- -- 37
2020-07-06 17:00:00 33.1 11 Sudeste 24 Sudeste 0 -- -- 39
2020-07-06 16:00:00 32 19 Sudeste 27 Sudeste 0 -- -- 43
2020-07-06 15:00:00 31.1 22 Sudeste 30 Sudeste 0 -- -- 47
2020-07-06 14:00:00 30.3 21 Sudeste 27 Sudeste 0 -- -- 50
2020-07-06 13:00:00 30 17 Sudeste 23 Sudeste 0 -- -- 47
2020-07-06 12:00:00 28.3 15 Sudeste 18 Sudeste 0 -- -- 46
2020-07-06 11:00:00 26.7 7 Sudeste 11 Este 0 -- -- 46
2020-07-06 10:00:00 23.5 3 Sudoeste 9 Nordeste 0 -- -- 56
2020-07-06 09:00:00 20.4 7 Norte 15 Norte 0 -- -- 61
2020-07-06 08:00:00 17.6 5 Norte 15 Norte 0 -- -- 74
2020-07-06 07:00:00 16.5 8 Noroeste 12 Noroeste 0 -- -- 75
2020-07-06 06:00:00 17.2 7 Noroeste 12 Norte 0 -- -- 80
2020-07-06 05:00:00 17.7 9 Noroeste 12 Noroeste 0 -- -- 75
2020-07-06 04:00:00 19 5 Noroeste 10 Noroeste 0 -- -- 71
2020-07-06 03:00:00 19.7 7 Norte 12 Norte 0 -- -- 69
2020-07-06 02:00:00 20.5 8 Noroeste 14 Noroeste 0 -- -- 67
2020-07-06 01:00:00 20.5 8 Norte 13 Norte 0 -- -- 70
2020-07-06 00:00:00 22.1 8 Noroeste 13 Noroeste 0 -- -- 64
2020-07-05 23:00:00 23.1 9 Noroeste 14 Norte 0 -- -- 61
2020-07-05 22:00:00 26.2 4 Norte 15 Sudeste 0 -- -- 52
2020-07-05 21:00:00 28.5 12 Sudeste 21 Sudeste 0 -- -- 45
2020-07-05 20:00:00 29.7 18 Sudeste 26 Sudeste 0 -- -- 44
2020-07-05 19:00:00 30.2 19 Sudeste 25 Sudeste 0 -- -- 44
2020-07-05 18:00:00 30.8 20 Sudeste 26 Sudeste 0 -- -- 42
2020-07-05 17:00:00 30.5 21 Sudeste 28 Sudeste 0 -- -- 43
2020-07-05 16:00:00 30.6 20 Sudeste 27 Sudeste 0 -- -- 43
2020-07-05 15:00:00 30.5 17 Sudeste 23 Sudeste 0 -- -- 39
2020-07-05 14:00:00 29.9 17 Sudeste 20 Sudeste 0 -- -- 40
2020-07-05 13:00:00 28.8 12 Sudeste 17 Sudeste 0 -- -- 41
2020-07-05 12:00:00 27.1 12 Sudeste 15 Sudeste 0 -- -- 41
2020-07-05 11:00:00 24.4 6 Sudeste 11 Este 0 -- -- 50
2020-07-05 10:00:00 21.3 2 Oeste 9 Sudeste 0 -- -- 59
2020-07-05 09:00:00 18.5 3 Sur 8 Norte 0 -- -- 71
2020-07-05 08:00:00 15.6 3 Noroeste 9 Norte 0 -- -- 80
2020-07-05 07:00:00 14.4 8 Noroeste 12 Noroeste 0 -- -- 81
2020-07-05 06:00:00 14.6 6 Noroeste 12 Noroeste 0 -- -- 81
2020-07-05 05:00:00 15.6 6 Noroeste 18 Norte 0 -- -- 78
2020-07-05 04:00:00 16.4 12 Norte 17 Norte 0 -- -- 76
2020-07-05 03:00:00 17 11 Noroeste 18 Noroeste 0 -- -- 76
2020-07-05 02:00:00 17.7 10 Noroeste 15 Norte 0 -- -- 76
2020-07-05 01:00:00 18.6 7 Noroeste 10 Oeste 0 -- -- 74
2020-07-05 00:00:00 19.4 6 Oeste 13 Noroeste 0 -- -- 71
2020-07-04 23:00:00 20.7 8 Noroeste 14 Norte 0 -- -- 66
2020-07-04 22:00:00 23.7 3 Nordeste 12 Sur 0 -- -- 52
2020-07-04 21:00:00 26.2 8 Sur 20 Sudeste 0 -- -- 47
2020-07-04 20:00:00 26.6 17 Sudeste 23 Sudeste 0 -- -- 46
2020-07-04 19:00:00 27.2 20 Sudeste 25 Sudeste 0 -- -- 46
2020-07-04 18:00:00 27.2 21 Sudeste 26 Sudeste 0 -- -- 46
2020-07-04 17:00:00 27.4 18 Sudeste 23 Sudeste 0 -- -- 45
2020-07-04 16:00:00 27.3 15 Sudeste 20 Sudeste 0 -- -- 46
2020-07-04 15:00:00 26.5 15 Sudeste 23 Sudeste 0 -- -- 48
2020-07-04 14:00:00 26 17 Sudeste 26 Sudeste 0 -- -- 49
2020-07-04 13:00:00 25 16 Sudeste 22 Sudeste 0 -- -- 51
2020-07-04 12:00:00 23.8 13 Sudeste 17 Sudeste 0 -- -- 50
2020-07-04 11:00:00 21.5 9 Sudeste 16 Sudeste 0 -- -- 55
2020-07-04 10:00:00 19.3 8 Sudeste 12 Sudeste 0 -- -- 64
2020-07-04 09:00:00 16 0 Calma 5 Noroeste 0 -- -- 76
2020-07-04 08:00:00 13 2 Oeste 7 Oeste 0 -- -- 85
2020-07-04 07:00:00 12.2 4 Noroeste 9 Noroeste 0 -- -- 80
2020-07-04 06:00:00 12.9 5 Oeste 10 Noroeste 0 -- -- 83
2020-07-04 05:00:00 13.8 6 Oeste 12 Noroeste 0 -- -- 78
2020-07-04 04:00:00 14.5 10 Noroeste 14 Oeste 0 -- -- 72
2020-07-04 03:00:00 15.4 11 Norte 15 Noroeste 0 -- -- 81
2020-07-04 02:00:00 16.4 11 Noroeste 14 Noroeste 0 -- -- 77
2020-07-04 01:00:00 17.9 10 Noroeste 15 Noroeste 0 -- -- 61
2020-07-04 00:00:00 18.8 8 Noroeste 12 Noroeste 0 -- -- 68
2020-07-03 23:00:00 20.9 5 Oeste 17 Oeste 0 -- -- 51
2020-07-03 22:00:00 22.3 11 Oeste 22 Oeste 0 -- -- 49
2020-07-03 21:00:00 25.7 17 Oeste 26 Oeste 0 -- -- 43
2020-07-03 20:00:00 27.2 7 Sudeste 21 Sudeste 0 -- -- 42
2020-07-03 19:00:00 27.1 15 Sudeste 22 Sudeste 0 -- -- 43
2020-07-03 18:00:00 26.9 17 Sudeste 24 Sudeste 0 -- -- 42
2020-07-03 17:00:00 26.4 19 Sudeste 25 Sudeste 0 -- -- 45
2020-07-03 16:00:00 25.8 20 Sudeste 29 Sudeste 0 -- -- 52
2020-07-03 15:00:00 25 22 Sudeste 33 Sudeste 0 -- -- 57
2020-07-03 14:00:00 24 24 Sudeste 32 Sudeste 0 -- -- 63
2020-07-03 13:00:00 23.4 22 Sudeste 33 Sudeste 0 -- -- 67
2020-07-03 12:00:00 22.9 18 Sudeste 28 Sudeste 0 -- -- 69
2020-07-03 11:00:00 22.2 15 Sudeste 22 Este 0 -- -- 67
2020-07-03 10:00:00 20.5 6 Sudeste 13 Sudeste 0 -- -- 68
2020-07-03 09:00:00 18.2 0 Calma 9 Noroeste 0 -- -- 69
2020-07-03 08:00:00 16.1 5 Noroeste 10 Oeste 0 -- -- 78
2020-07-03 07:00:00 15.9 12 Oeste 15 Oeste 0 -- -- 76
2020-07-03 06:00:00 16.1 11 Oeste 14 Oeste 0 -- -- 77
2020-07-03 05:00:00 16.8 9 Noroeste 13 Noroeste 0 -- -- 84
2020-07-03 04:00:00 17.1 5 Oeste 9 Noroeste 0 -- -- 82
2020-07-03 03:00:00 17.7 5 Este 9 Oeste 0 -- -- 86
2020-07-03 02:00:00 19 4 Noroeste 13 Oeste 0.2 -- -- 76
2020-07-03 01:00:00 19.7 7 Oeste 12 Oeste 0 -- -- 71
2020-07-03 00:00:00 20.3 8 Norte 12 Este 0 -- -- 80
2020-07-02 23:00:00 21.4 7 Este 25 Oeste 0 -- -- 73
2020-07-02 22:00:00 22.5 13 Oeste 22 Oeste 0 -- -- 61
2020-07-02 21:00:00 23.7 5 Sudeste 12 Este 0 -- -- 75
2020-07-02 20:00:00 24.9 9 Sudeste 17 Sudeste 0 -- -- 66
2020-07-02 19:00:00 26.6 9 Sur 14 Sur 0 -- -- 61
2020-07-02 18:00:00 25.7 5 Sur 28 Sudeste 0 -- -- 66
2020-07-02 17:00:00 22.7 7 Sudoeste 14 Sur 0.2 -- -- 80
2020-07-02 16:00:00 19.7 7 Este 21 Noroeste 0.4 -- -- 88
2020-07-02 15:00:00 18.8 8 Sudeste 37 Norte 0.6 -- -- 85
2020-07-02 14:00:00 27.9 23 Sudeste 32 Sudeste 0 -- -- 57
2020-07-02 13:00:00 27.1 16 Sudeste 26 Sudeste 0 -- -- 61
2020-07-02 12:00:00 25 11 Sudeste 17 Sudeste 0 -- -- 64
2020-07-02 11:00:00 22.4 3 Este 12 Oeste 0.2 -- -- 73
2020-07-02 10:00:00 21.1 6 Oeste 13 Sudoeste 0 -- -- 76
2020-07-02 09:00:00 19.4 5 Norte 9 Norte 0 -- -- 79
2020-07-02 08:00:00 18 7 Norte 12 Oeste 0 -- -- 82
2020-07-02 07:00:00 17.8 9 Oeste 10 Oeste 0 -- -- 80
2020-07-02 06:00:00 18.3 5 Noroeste 9 Norte 0 -- -- 79
2020-07-02 05:00:00 18.5 3 Nordeste 12 Oeste 0 -- -- 77
2020-07-02 04:00:00 19.3 5 Noroeste 12 Oeste 0 -- -- 72
2020-07-02 03:00:00 20.2 9 Noroeste 14 Noroeste 0 -- -- 70
2020-07-02 02:00:00 21.4 5 Oeste 13 Noroeste 0 -- -- 65
2020-07-02 01:00:00 21.9 7 Noroeste 18 Noroeste 0 -- -- 65
2020-07-02 00:00:00 23.1 9 Noroeste 14 Norte 0 -- -- 62
2020-07-01 23:00:00 25 7 Norte 13 Sudeste 0 -- -- 54
2020-07-01 22:00:00 27 8 Sur 32 Sudoeste 0 -- -- 46
2020-07-01 21:00:00 30.1 18 Oeste 28 Oeste 0 -- -- 39
2020-07-01 20:00:00 31.5 18 Noroeste 26 Oeste 0 -- -- 39
2020-07-01 19:00:00 31.6 17 Oeste 30 Noroeste 0 -- -- 39
2020-07-01 18:00:00 30.6 8 Sur 24 Sudeste 0 -- -- 44
2020-07-01 17:00:00 31 18 Sudeste 30 Sudeste 0 -- -- 45
2020-07-01 16:00:00 31.3 22 Sudeste 36 Sudeste 0 -- -- 44
2020-07-01 15:00:00 31.9 18 Sudeste 26 Sudeste 0 -- -- 42
2020-07-01 14:00:00 31 15 Sudeste 19 Sudeste 0 -- -- 44
2020-07-01 13:00:00 29.9 11 Sudeste 17 Sur 0 -- -- 49
2020-07-01 12:00:00 28.6 8 Sur 15 Sur 0 -- -- 56
2020-07-01 11:00:00 26.3 6 Sudeste 11 Este 0 -- -- 62
2020-07-01 10:00:00 24 4 Sudeste 8 Sudeste 0 -- -- 73
2020-07-01 09:00:00 21.7 2 Sudoeste 5 Sudoeste 0 -- -- 83
2020-07-01 08:00:00 19.9 0 Calma 9 Oeste 0 -- -- 87
2020-07-01 07:00:00 19 4 Oeste 18 Noroeste 0 -- -- 89
2020-07-01 06:00:00 19 12 Noroeste 18 Norte 0 -- -- 91
2020-07-01 05:00:00 19.1 8 Oeste 11 Norte 0 -- -- 91
2020-07-01 04:00:00 19.9 6 Oeste 13 Noroeste 0 -- -- 87
2020-07-01 03:00:00 20.7 4 Noroeste 15 Oeste 0 -- -- 90
2020-07-01 02:00:00 21.6 5 Sudoeste 15 Nordeste 0.2 -- -- 88
2020-07-01 01:00:00 22.3 5 Oeste 10 Oeste 0 -- -- 82
2020-07-01 00:00:00 22.9 4 Oeste 10 Norte 0 -- -- 81
2020-06-30 23:00:00 23.5 3 Norte 11 Oeste 0 -- -- 76
2020-06-30 22:00:00 24.6 6 Noroeste 10 Oeste 0 -- -- 75
2020-06-30 21:00:00 26.8 4 Oeste 6 Nordeste 0 -- -- 67
2020-06-30 20:00:00 28 0 Calma 11 Sudeste 0 -- -- 60
2020-06-30 19:00:00 28.4 10 Sudeste 23 Sudeste 0 -- -- 58
2020-06-30 18:00:00 29.2 19 Sudeste 26 Sudeste 0 -- -- 58
2020-06-30 17:00:00 29.7 18 Sudeste 25 Sudeste 0 -- -- 56
2020-06-30 16:00:00 29.5 19 Sudeste 24 Sudeste 0 -- -- 57
2020-06-30 15:00:00 29.7 12 Sudeste 19 Este 0 -- -- 58
2020-06-30 14:00:00 28.2 8 Sudeste 15 Sudeste 0 -- -- 62
2020-06-30 13:00:00 27.7 10 Sudeste 17 Sudeste 0 -- -- 64
2020-06-30 12:00:00 25.4 10 Sudeste 15 Sudeste 0 -- -- 74
2020-06-30 11:00:00 23.7 10 Sudeste 15 Sudeste 0 -- -- 81
2020-06-30 10:00:00 22.6 9 Sudeste 11 Sudeste 0 -- -- 83
2020-06-30 09:00:00 21.3 0 Calma 5 Oeste 0 -- -- 80
2020-06-30 08:00:00 20.5 0 Calma -- -- 0 -- -- 82
2020-06-30 07:00:00 20.2 0 Calma 7 Oeste 0 -- -- 81
2020-06-30 06:00:00 20.3 5 Oeste 8 Oeste 0 -- -- 80
2020-06-30 05:00:00 20.4 4 Oeste 9 Oeste 0 -- -- 80
2020-06-30 04:00:00 20.7 6 Oeste 10 Oeste 0 -- -- 78
2020-06-30 03:00:00 21.1 8 Noroeste 10 Oeste 0 -- -- 81
2020-06-30 02:00:00 21.8 4 Noroeste 8 Sudoeste 0 -- -- 81
2020-06-30 01:00:00 22.9 7 Sur 24 Sudeste 0 -- -- 81
2020-06-30 00:00:00 24 15 Sudeste 28 Sur 0 -- -- 79
2020-06-29 23:00:00 24.3 4 Nordeste 10 Sur 0 -- -- 68
2020-06-29 22:00:00 25.4 4 Noroeste 12 Sudeste 0 -- -- 62
2020-06-29 21:00:00 30.1 3 Sudoeste 12 Sudeste 0 -- -- 53
2020-06-29 20:00:00 29.8 8 Sudeste 15 Sudeste 0 -- -- 55
2020-06-29 19:00:00 29.3 12 Sudeste 18 Sudeste 0 -- -- 58
2020-06-29 18:00:00 28.3 14 Sudeste 21 Sudeste 0 -- -- 58
2020-06-29 17:00:00 28.6 13 Sudeste 18 Sudeste 0 -- -- 58
2020-06-29 16:00:00 27.3 15 Sudeste 26 Sudeste 0 -- -- 65
2020-06-29 15:00:00 27.9 17 Sudeste 24 Sudeste 0 -- -- 63
2020-06-29 14:00:00 28.1 15 Sudeste 20 Sudeste 0 -- -- 60
2020-06-29 13:00:00 27.7 12 Sudeste 18 Sudeste 0 -- -- 60
2020-06-29 12:00:00 27.7 11 Sudeste 16 Sudeste 0 -- -- 58
2020-06-29 11:00:00 24.6 5 Este 9 Este 0 -- -- 69
2020-06-29 10:00:00 21.7 2 Sudoeste 6 Noroeste 0 -- -- 80
2020-06-29 09:00:00 20.4 3 Noroeste 6 Noroeste 0 -- -- 83
2020-06-29 08:00:00 18.6 0 Calma 8 Noroeste 0 -- -- 88
2020-06-29 07:00:00 17.6 6 Noroeste 9 Oeste 0 -- -- 92
2020-06-29 06:00:00 18.1 6 Noroeste 10 Oeste 0 -- -- 89
2020-06-29 05:00:00 18.2 7 Noroeste 11 Noroeste 0 -- -- 89
2020-06-29 04:00:00 19 8 Oeste 10 Oeste 0 -- -- 86
2020-06-29 03:00:00 19.6 5 Noroeste 11 Norte 0 -- -- 84
2020-06-29 02:00:00 20.1 7 Noroeste 15 Noroeste 0 -- -- 83
2020-06-29 01:00:00 20.9 6 Oeste 15 Noroeste 0 -- -- 81
2020-06-29 00:00:00 21.5 13 Norte 17 Norte 0 -- -- 79
2020-06-28 23:00:00 22.2 8 Noroeste 12 Oeste 0 -- -- 79
2020-06-28 22:00:00 23.8 9 Oeste 17 Oeste 0 -- -- 76
2020-06-28 21:00:00 25.5 6 Oeste 15 Oeste 0 -- -- 71
2020-06-28 20:00:00 26.8 11 Oeste 15 Oeste 0 -- -- 67
2020-06-28 19:00:00 28.5 9 Oeste 13 Oeste 0 -- -- 61
2020-06-28 18:00:00 27.5 12 Noroeste 17 Oeste 0 -- -- 61
2020-06-28 17:00:00 29.1 5 Sudeste 12 Sudeste 0 -- -- 50
2020-06-28 16:00:00 28.9 4 Sudoeste 11 Norte 0 -- -- 47
2020-06-28 15:00:00 28.1 3 Norte 13 Este 0 -- -- 50
2020-06-28 14:00:00 26.5 4 Sur 15 Sudeste 0 -- -- 60
2020-06-28 13:00:00 26.8 10 Sudeste 17 Sudeste 0 -- -- 59
2020-06-28 12:00:00 26.9 5 Sur 11 Sur 0 -- -- 58
2020-06-28 11:00:00 23.8 5 Este 9 Este 0 -- -- 62
2020-06-28 10:00:00 21.4 2 Oeste 6 Oeste 0 -- -- 74
2020-06-28 09:00:00 19.6 3 Sudoeste 7 Noroeste 0 -- -- 79
2020-06-28 08:00:00 18.4 3 Oeste 9 Noroeste 0 -- -- 80
2020-06-28 07:00:00 17.8 5 Noroeste 8 Noroeste 0 -- -- 82
2020-06-28 06:00:00 18 6 Noroeste 11 Noroeste 0 -- -- 81
2020-06-28 05:00:00 18.3 4 Noroeste 10 Noroeste 0 -- -- 78
2020-06-28 04:00:00 18.3 7 Noroeste 14 Noroeste 0 -- -- 77
2020-06-28 03:00:00 18.4 6 Noroeste 12 Noroeste 0 -- -- 76
2020-06-28 02:00:00 18.5 6 Noroeste 13 Noroeste 0 -- -- 78
2020-06-28 01:00:00 20.1 8 Norte 15 Noroeste 0 -- -- 70
2020-06-28 00:00:00 20.7 9 Noroeste 15 Noroeste 0 -- -- 69
2020-06-27 23:00:00 22.5 6 Noroeste 13 Noroeste 0 -- -- 65
2020-06-27 22:00:00 24.1 6 Oeste 13 Oeste 0 -- -- 60
2020-06-27 21:00:00 26.5 7 Sudeste 17 Sudeste 0 -- -- 51
2020-06-27 20:00:00 27.8 12 Sudeste 18 Sudeste 0 -- -- 46
2020-06-27 19:00:00 28.5 12 Sudeste 18 Sudeste 0 -- -- 48
2020-06-27 18:00:00 27.7 10 Sudeste 18 Sudeste 0 -- -- 47
2020-06-27 17:00:00 29.1 14 Sudeste 22 Sudeste 0 -- -- 44
2020-06-27 16:00:00 29 12 Sudeste 18 Sudeste 0 -- -- 42
2020-06-27 15:00:00 28.6 8 Sudeste 15 Sudeste 0 -- -- 40
2020-06-27 14:00:00 28 9 Sudeste 16 Sudeste 0 -- -- 39
2020-06-27 13:00:00 26.9 8 Sudeste 13 Sudeste 0 -- -- 47
2020-06-27 12:00:00 25.3 6 Este 11 Sudeste 0 -- -- 53
2020-06-27 11:00:00 22.8 5 Este 11 Sudeste 0.2 -- -- 61
2020-06-27 10:00:00 20.2 3 Sudoeste 8 Noroeste 0 -- -- 73
2020-06-27 09:00:00 17.6 0 Calma 11 Norte 0 -- -- 79
2020-06-27 08:00:00 15.3 5 Norte 13 Norte 0 -- -- 89
2020-06-27 07:00:00 14.2 3 Oeste 15 Norte 0 -- -- 88
2020-06-27 06:00:00 14.2 8 Noroeste 17 Norte 0 -- -- 91
2020-06-27 05:00:00 14.4 10 Noroeste 18 Norte 0 -- -- 91
2020-06-27 04:00:00 15 8 Norte 15 Norte 0 -- -- 90
2020-06-27 03:00:00 15.4 9 Norte 12 Norte 0 -- -- 90
2020-06-27 02:00:00 16.2 3 Oeste 18 Norte 0 -- -- 85
2020-06-27 01:00:00 16.4 12 Norte 15 Noroeste 0 -- -- 87
2020-06-27 00:00:00 17.1 4 Noroeste 15 Oeste 0 -- -- 85
2020-06-26 23:00:00 17.5 9 Noroeste 20 Norte 0 -- -- 86
2020-06-26 22:00:00 18.7 3 Sur 6 Norte 0 -- -- 80
2020-06-26 21:00:00 18.7 7 Norte 17 Oeste 0 -- -- 79
2020-06-26 20:00:00 18.5 14 Noroeste 55 Sudoeste 2 -- -- 82
2020-06-26 19:00:00 22.5 30 Sudoeste 50 Sudoeste 0.6 -- -- 63
2020-06-26 18:00:00 27.5 13 Sur 21 Sudeste 0 -- -- 41
2020-06-26 17:00:00 28.7 12 Sur 23 Sudeste 0 -- -- 39
2020-06-26 16:00:00 29.2 12 Sudeste 19 Sudeste 0 -- -- 37
2020-06-26 15:00:00 27.5 8 Sudeste 22 Sudeste 0 -- -- 44
2020-06-26 14:00:00 28.5 12 Sur 21 Sudeste 0 -- -- 47
2020-06-26 13:00:00 26.8 8 Sudeste 12 Sudeste 0 -- -- 53
2020-06-26 12:00:00 25 4 Sudoeste 8 Oeste 0 -- -- 60
2020-06-26 11:00:00 23.4 4 Sudoeste 9 Sur 0 -- -- 68
2020-06-26 10:00:00 21.3 3 Sudoeste 13 Norte 0 -- -- 74
2020-06-26 09:00:00 18.9 0 Calma 12 Norte 0 -- -- 85
2020-06-26 08:00:00 16.5 6 Norte 9 Norte 0 -- -- 91
2020-06-26 07:00:00 16 7 Norte 16 Oeste 0 -- -- 94
2020-06-26 06:00:00 16.5 5 Noroeste 13 Sudeste 0 -- -- 92
2020-06-26 05:00:00 16.6 12 Oeste 18 Sudoeste 0 -- -- 92
2020-06-26 04:00:00 17.1 10 Noroeste 19 Noroeste 0 -- -- 85
2020-06-26 03:00:00 17.2 13 Oeste 21 Noroeste 0.6 -- -- 88
2020-06-26 02:00:00 17.5 9 Sudoeste 26 Oeste 1 -- -- 90
2020-06-26 01:00:00 18.9 6 Sudoeste 44 Noroeste 0 -- -- 74
2020-06-26 00:00:00 18.1 29 Noroeste 45 Noroeste 0.8 -- -- 81
2020-06-25 23:00:00 20.6 19 Norte 31 Norte 0 -- -- 69
2020-06-25 22:00:00 24.2 14 Sur 31 Sudeste 0 -- -- 51
2020-06-25 21:00:00 25.3 16 Sudeste 32 Sudeste 0 -- -- 55
2020-06-25 20:00:00 28.3 8 Sur 24 Sudoeste 0 -- -- 46
2020-06-25 19:00:00 29.3 15 Sur 25 Sudeste 0 -- -- 41
2020-06-25 18:00:00 30.4 18 Sudeste 23 Sudeste 0 -- -- 43
2020-06-25 17:00:00 31.4 13 Sudeste 19 Sudeste 0 -- -- 37
2020-06-25 16:00:00 31.1 14 Sudeste 19 Sudeste 0 -- -- 38
2020-06-25 15:00:00 30.9 12 Sudeste 17 Sudeste 0 -- -- 40
2020-06-25 14:00:00 29.6 9 Sudeste 16 Este 0 -- -- 41
2020-06-25 13:00:00 27.8 6 Sudeste 10 Este 0 -- -- 45
2020-06-25 12:00:00 25.5 3 Sudeste 8 Sudoeste 0 -- -- 54
2020-06-25 11:00:00 22.8 4 Sudoeste 8 Sur 0 -- -- 70
2020-06-25 10:00:00 19.8 3 Sudoeste 7 Sudoeste 0 -- -- 78
2020-06-25 09:00:00 17.1 2 Sudoeste 10 Norte 0 -- -- 85
2020-06-25 08:00:00 14.7 5 Norte 9 Norte 0 -- -- 93
2020-06-25 07:00:00 14.1 8 Norte 13 Norte 0 -- -- 92
2020-06-25 06:00:00 14.5 9 Oeste 16 Norte 0 -- -- 92
2020-06-25 05:00:00 14.5 9 Noroeste 16 Norte 0 -- -- 91
2020-06-25 04:00:00 14.8 9 Noroeste 14 Norte 0 -- -- 92
2020-06-25 03:00:00 15.1 6 Norte 13 Norte 0 -- -- 92
2020-06-25 02:00:00 16.5 9 Norte 12 Norte 0 -- -- 87
2020-06-25 01:00:00 17.3 3 Este 10 Oeste 0 -- -- 85
2020-06-25 00:00:00 17.6 9 Oeste 21 Oeste 0 -- -- 84
2020-06-24 23:00:00 17.5 6 Oeste 23 Norte 0.2 -- -- 90
2020-06-24 22:00:00 17.3 8 Oeste 26 Norte 1.6 -- -- 91
2020-06-24 21:00:00 18.7 8 Norte 19 Este 0.6 -- -- 84
2020-06-24 20:00:00 20.4 5 Sudeste 33 Noroeste 0 -- -- 69
2020-06-24 19:00:00 20.3 15 Noroeste 27 Norte 0.6 -- -- 70
2020-06-24 18:00:00 19.7 16 Norte 43 Norte 0.6 -- -- 77
2020-06-24 17:00:00 19.9 18 Oeste 55 Oeste 1.2 -- -- 87
2020-06-24 16:00:00 28 21 Sudeste 33 Sudeste 0 -- -- 48
2020-06-24 15:00:00 29.9 23 Sudeste 34 Sudeste 0 -- -- 49
2020-06-24 14:00:00 29.7 21 Sudeste 25 Sudeste 0 -- -- 50
2020-06-24 13:00:00 28.8 15 Sudeste 18 Sudeste 0 -- -- 53
2020-06-24 12:00:00 27.7 11 Sudeste 14 Sudeste 0 -- -- 56
2020-06-24 11:00:00 25.7 6 Sudeste 12 Sudeste 0 -- -- 61
2020-06-24 10:00:00 23.3 4 Sur 11 Este 0 -- -- 68
2020-06-24 09:00:00 20.6 3 Sudeste 8 Nordeste 0 -- -- 76
2020-06-24 08:00:00 18.1 4 Nordeste 9 Norte 0 -- -- 83
2020-06-24 07:00:00 16.8 5 Noroeste 8 Noroeste 0 -- -- 86
2020-06-24 06:00:00 16.9 7 Oeste 11 Norte 0 -- -- 84
2020-06-24 05:00:00 17.7 4 Noroeste 13 Norte 0 -- -- 82
2020-06-24 04:00:00 18 6 Noroeste 12 Oeste 0 -- -- 82
2020-06-24 03:00:00 18.6 6 Noroeste 12 Noroeste 0 -- -- 78
2020-06-24 02:00:00 19.3 7 Noroeste 12 Noroeste 0 -- -- 77
2020-06-24 01:00:00 20.2 6 Noroeste 10 Oeste 0 -- -- 72
2020-06-24 00:00:00 21.6 5 Oeste 9 Oeste 0 -- -- 66
2020-06-23 23:00:00 24 3 Oeste 9 Sudeste 0 -- -- 59
2020-06-23 22:00:00 25.7 3 Este 17 Sudeste 0 -- -- 53
2020-06-23 21:00:00 27.2 15 Sudeste 21 Sudeste 0 -- -- 50
2020-06-23 20:00:00 28.3 17 Sudeste 23 Sudeste 0 -- -- 47
2020-06-23 19:00:00 29.5 16 Sudeste 23 Sudeste 0 -- -- 42
2020-06-23 18:00:00 29.7 18 Sudeste 24 Sudeste 0 -- -- 41
2020-06-23 17:00:00 30.2 17 Sudeste 22 Sudeste 0 -- -- 41
2020-06-23 16:00:00 29.7 18 Sudeste 23 Sudeste 0 -- -- 44
2020-06-23 15:00:00 29.9 18 Sudeste 22 Sudeste 0 -- -- 43
2020-06-23 14:00:00 29.2 15 Sudeste 18 Sudeste 0 -- -- 43
2020-06-23 13:00:00 28.1 13 Sudeste 17 Sudeste 0 -- -- 49
2020-06-23 12:00:00 26.6 11 Sudeste 14 Este 0 -- -- 54
2020-06-23 11:00:00 24.7 6 Sudeste 12 Este 0 -- -- 59
2020-06-23 10:00:00 22.2 5 Sudeste 10 Este 0 -- -- 68
2020-06-23 09:00:00 19.5 3 Sudoeste 13 Norte 0 -- -- 75
2020-06-23 08:00:00 16.7 6 Norte 15 Norte 0 -- -- 84
2020-06-23 07:00:00 15.1 9 Noroeste 13 Norte 0 -- -- 89
2020-06-23 06:00:00 15.9 4 Oeste 10 Noroeste 0 -- -- 85
2020-06-23 05:00:00 15.8 8 Noroeste 13 Noroeste 0 -- -- 86
2020-06-23 04:00:00 17 6 Oeste 15 Norte 0 -- -- 81
2020-06-23 03:00:00 17.6 7 Oeste 11 Noroeste 0 -- -- 79
2020-06-23 02:00:00 18.2 8 Norte 13 Noroeste 0 -- -- 79
2020-06-23 01:00:00 19.3 8 Oeste 12 Noroeste 0 -- -- 73
2020-06-23 00:00:00 20.7 9 Noroeste 13 Noroeste 0 -- -- 68
2020-06-22 23:00:00 22 10 Noroeste 11 Noroeste 0 -- -- 64
2020-06-22 22:00:00 24.6 3 Este 17 Sudeste 0 -- -- 56
2020-06-22 21:00:00 26 15 Sudeste 26 Sudeste 0 -- -- 51
2020-06-22 20:00:00 27.2 21 Sudeste 34 Sudeste 0 -- -- 50
2020-06-22 19:00:00 28.1 26 Sudeste 35 Sudeste 0 -- -- 48
2020-06-22 18:00:00 28.3 24 Sudeste 31 Sudeste 0 -- -- 47
2020-06-22 17:00:00 29 21 Sudeste 27 Sudeste 0 -- -- 46
2020-06-22 16:00:00 29.1 18 Sudeste 23 Sudeste 0 -- -- 45
2020-06-22 15:00:00 28.5 17 Sudeste 21 Sudeste 0 -- -- 43
2020-06-22 14:00:00 28.3 13 Sudeste 19 Sudeste 0 -- -- 39
2020-06-22 13:00:00 27.1 11 Sudeste 16 Sudeste 0 -- -- 44
2020-06-22 12:00:00 25.6 12 Sudeste 15 Sudeste 0 -- -- 46
2020-06-22 11:00:00 24.1 9 Sudeste 14 Sudeste 0 -- -- 47
2020-06-22 10:00:00 21.2 3 Nordeste 10 Nordeste 0 -- -- 59
2020-06-22 09:00:00 18 2 Sur 9 Noroeste 0 -- -- 67
2020-06-22 08:00:00 15 4 Noroeste 11 Oeste 0 -- -- 75
2020-06-22 07:00:00 14.7 5 Oeste 10 Norte 0 -- -- 71
2020-06-22 06:00:00 15.1 8 Oeste 10 Noroeste 0 -- -- 69
2020-06-22 05:00:00 16.4 3 Noroeste 10 Noroeste 0 -- -- 64
2020-06-22 04:00:00 17.8 3 Oeste 15 Oeste 0 -- -- 59
2020-06-22 03:00:00 19.1 7 Sudoeste 17 Oeste 0 -- -- 55
2020-06-22 02:00:00 21.5 10 Noroeste 18 Noroeste 0 -- -- 46
2020-06-22 01:00:00 22.2 8 Noroeste 21 Oeste 0 -- -- 43
2020-06-22 00:00:00 23 9 Oeste 35 Norte 0 -- -- 41
2020-06-21 23:00:00 23.7 14 Noroeste 35 Norte 0 -- -- 42
2020-06-21 22:00:00 24.6 19 Noroeste 30 Noroeste 0 -- -- 43
2020-06-21 21:00:00 27.3 23 Noroeste 35 Oeste 0 -- -- 40
2020-06-21 20:00:00 29.3 24 Oeste 38 Oeste 0 -- -- 37
2020-06-21 19:00:00 30.6 26 Oeste 37 Oeste 0 -- -- 36
2020-06-21 18:00:00 31.9 14 Oeste 32 Sudoeste 0 -- -- 36
2020-06-21 17:00:00 31.6 14 Sudoeste 24 Oeste 0 -- -- 33
2020-06-21 16:00:00 30.9 8 Sudeste 20 Este 0 -- -- 36
2020-06-21 15:00:00 29.2 13 Sudeste 22 Sudeste 0 -- -- 46
2020-06-21 14:00:00 28 15 Sudeste 20 Sudeste 0 -- -- 54
2020-06-21 13:00:00 26.6 15 Sudeste 19 Sudeste 0 -- -- 53
2020-06-21 12:00:00 25.1 13 Sudeste 16 Sudeste 0 -- -- 44
2020-06-21 11:00:00 22.8 5 Sudeste 12 Este 0 -- -- 51
2020-06-21 10:00:00 19.8 7 Este 11 Este 0 -- -- 61
2020-06-21 09:00:00 16.6 3 Noroeste 7 Noroeste 0 -- -- 72
2020-06-21 08:00:00 13.7 3 Noroeste 12 Norte 0 -- -- 83
2020-06-21 07:00:00 12.3 9 Norte 13 Norte 0 -- -- 86
2020-06-21 06:00:00 13.1 6 Oeste 11 Noroeste 0 -- -- 79
2020-06-21 05:00:00 13.5 8 Oeste 17 Norte 0 -- -- 80
2020-06-21 04:00:00 14.7 8 Noroeste 14 Norte 0 -- -- 76
2020-06-21 03:00:00 15.7 7 Noroeste 12 Noroeste 0 -- -- 75
2020-06-21 02:00:00 16.5 9 Norte 15 Norte 0 -- -- 73
2020-06-21 01:00:00 18.1 13 Noroeste 23 Norte 0 -- -- 66
2020-06-21 00:00:00 18.6 16 Norte 23 Norte 0 -- -- 67
2020-06-20 23:00:00 19.7 18 Norte 22 Norte 0 -- -- 64
2020-06-20 22:00:00 23.1 8 Norte 13 Norte 0 -- -- 50
2020-06-20 21:00:00 27.3 3 Oeste 22 Oeste 0 -- -- 36
2020-06-20 20:00:00 27.7 20 Oeste 27 Oeste 0 -- -- 30
2020-06-20 19:00:00 28.4 9 Oeste 16 Oeste 0 -- -- 39
2020-06-20 18:00:00 26.4 2 Este 21 Este 0 -- -- 53
2020-06-20 17:00:00 26.8 6 Sudeste 22 Este 0 -- -- 55
2020-06-20 16:00:00 26 6 Nordeste 36 Sudeste 0 -- -- 53
2020-06-20 15:00:00 26.2 23 Sudeste 30 Sudeste 0 -- -- 59
2020-06-20 14:00:00 25 17 Sudeste 27 Sudeste 0 -- -- 64
2020-06-20 13:00:00 23.9 14 Sudeste 22 Sudeste 0 -- -- 66
2020-06-20 12:00:00 22.4 8 Sudeste 15 Sur 0 -- -- 71
2020-06-20 11:00:00 22.2 6 Sudeste 13 Sur 0 -- -- 72
2020-06-20 10:00:00 20.1 4 Sudeste 9 Nordeste 0 -- -- 71
2020-06-20 09:00:00 17.3 3 Noroeste 9 Norte 0 -- -- 79
2020-06-20 08:00:00 14.9 3 Oeste 10 Noroeste 0 -- -- 91
2020-06-20 07:00:00 14.2 6 Noroeste 9 Noroeste 0 -- -- 92
2020-06-20 06:00:00 14.6 3 Norte 9 Oeste 0 -- -- 93
2020-06-20 05:00:00 14.9 6 Noroeste 12 Norte 0 -- -- 90
2020-06-20 04:00:00 15.3 6 Noroeste 12 Noroeste 0 -- -- 90
2020-06-20 03:00:00 16 8 Noroeste 15 Norte 0 -- -- 89
2020-06-20 02:00:00 17.2 10 Norte 13 Norte 0 -- -- 86
2020-06-20 01:00:00 17.8 7 Norte 13 Norte 0 -- -- 84
2020-06-20 00:00:00 18.4 6 Nordeste 13 Norte 0 -- -- 81
2020-06-19 23:00:00 19.2 9 Norte 12 Norte 0 -- -- 77
2020-06-19 22:00:00 20.5 6 Este 15 Sudeste 0 -- -- 74
2020-06-19 21:00:00 21.8 13 Sudeste 19 Sudeste 0 -- -- 69
2020-06-19 20:00:00 22.1 11 Sudeste 18 Sudeste 0 -- -- 65
2020-06-19 19:00:00 23.3 10 Sudeste 14 Sudeste 0 -- -- 59
2020-06-19 18:00:00 23.3 3 Este 7 Sudeste 0 -- -- 58
2020-06-19 17:00:00 23.2 3 Este 15 Sur 0 -- -- 59
2020-06-19 16:00:00 23.9 6 Sudeste 15 Sudeste 0 -- -- 58
2020-06-19 15:00:00 21.6 9 Sudeste 16 Sudeste 0 -- -- 64
2020-06-19 14:00:00 21.6 11 Sudeste 14 Sudeste 0 -- -- 66
2020-06-19 13:00:00 19.9 7 Sudeste 13 Sur 0 -- -- 76
2020-06-19 12:00:00 17.4 8 Sudeste 12 Sudeste 0 -- -- 89
2020-06-19 11:00:00 15.7 2 Sur 10 Oeste 0 -- -- 90
2020-06-19 10:00:00 14.5 4 Oeste 7 Noroeste 0 -- -- 92
2020-06-19 09:00:00 13.7 3 Nordeste 11 Oeste 4.8 -- -- 93
2020-06-19 08:00:00 14.5 3 Noroeste 9 Noroeste 0 -- -- 84
2020-06-19 07:00:00 14.4 5 Noroeste 7 Noroeste 0 -- -- 83
2020-06-19 06:00:00 14.5 6 Noroeste 8 Noroeste 0 -- -- 81
2020-06-19 05:00:00 14.7 2 Sur 12 Noroeste 0 -- -- 74
2020-06-19 04:00:00 14.6 6 Noroeste 10 Noroeste 0 -- -- 80
2020-06-19 03:00:00 14.6 8 Oeste 11 Oeste 0 -- -- 76
2020-06-19 02:00:00 15 8 Oeste 11 Oeste 0 -- -- 75
2020-06-19 01:00:00 15.8 7 Oeste 9 Oeste 0 -- -- 70
2020-06-19 00:00:00 17 3 Noroeste 8 Oeste 0 -- -- 68
2020-06-18 23:00:00 18.1 3 Oeste 6 Sudeste 0 -- -- 58
2020-06-18 22:00:00 19 4 Este 14 Sudoeste 0 -- -- 67
2020-06-18 21:00:00 20.2 7 Sur 15 Sur 0 -- -- 63
2020-06-18 20:00:00 21.6 8 Sudeste 17 Sur 0 -- -- 57
2020-06-18 19:00:00 21.9 12 Sudeste 17 Sudeste 0 -- -- 53
2020-06-18 18:00:00 21.8 12 Sudeste 21 Sudeste 0 -- -- 53
2020-06-18 17:00:00 21.6 14 Sudeste 18 Sudeste 0 -- -- 56
2020-06-18 16:00:00 20.6 6 Sudeste 20 Sur 0 -- -- 64
2020-06-18 15:00:00 18.5 16 Sur 24 Sur 0.4 -- -- 70
2020-06-18 14:00:00 20.3 8 Sudeste 17 Sur 0 -- -- 56
2020-06-18 13:00:00 19.8 5 Sur 12 Sur 0 -- -- 54
2020-06-18 12:00:00 18.2 5 Nordeste 12 Sudeste 0 -- -- 69
2020-06-18 11:00:00 17 4 Sudeste 12 Sudoeste 0 -- -- 68
2020-06-18 10:00:00 14.5 2 Oeste 10 Oeste 0.2 -- -- 79
2020-06-18 09:00:00 12.8 4 Noroeste 11 Nordeste 0 -- -- 84
2020-06-18 08:00:00 11.2 4 Norte 12 Noroeste 0 -- -- 89
2020-06-18 07:00:00 11.2 5 Noroeste 12 Oeste 0 -- -- 86
2020-06-18 06:00:00 11.2 8 Norte 13 Noroeste 0 -- -- 85
2020-06-18 05:00:00 11.7 2 Oeste 14 Noroeste 0 -- -- 83
2020-06-18 04:00:00 11.8 9 Noroeste 13 Norte 0 -- -- 81
2020-06-18 03:00:00 12.2 8 Norte 14 Norte 0 -- -- 79
2020-06-18 02:00:00 12.4 9 Oeste 16 Noroeste 0 -- -- 76
2020-06-18 01:00:00 12.5 12 Norte 17 Norte 0 -- -- 77
2020-06-18 00:00:00 13 5 Nordeste 18 Norte 0 -- -- 77
2020-06-17 23:00:00 14.7 14 Norte 18 Norte 0 -- -- 67
2020-06-17 22:00:00 17.9 2 Oeste 13 Oeste 0 -- -- 50
2020-06-17 21:00:00 21.1 7 Oeste 21 Oeste 0 -- -- 43
2020-06-17 20:00:00 22.1 14 Oeste 31 Sudoeste 0 -- -- 37
2020-06-17 19:00:00 22.4 24 Sudoeste 33 Sudoeste 0 -- -- 41
2020-06-17 18:00:00 22.7 18 Oeste 33 Oeste 0 -- -- 40
2020-06-17 17:00:00 21.8 15 Oeste 30 Oeste 0 -- -- 39
2020-06-17 16:00:00 21.1 13 Noroeste 33 Oeste 0 -- -- 46
2020-06-17 15:00:00 20.8 12 Sudoeste 21 Sudoeste 0 -- -- 49
2020-06-17 14:00:00 20.1 16 Sudeste 31 Sudeste 0 -- -- 61
2020-06-17 13:00:00 19.7 6 Sudeste 18 Sudeste 0 -- -- 55
2020-06-17 12:00:00 18.1 10 Este 17 Sudeste 0 -- -- 67
2020-06-17 11:00:00 16.4 5 Sudeste 10 Sudeste 0 -- -- 67
2020-06-17 10:00:00 14.4 4 Nordeste 9 Nordeste 0 -- -- 76
2020-06-17 09:00:00 12.6 3 Nordeste 8 Nordeste 0 -- -- 90
2020-06-17 08:00:00 11 5 Oeste 10 Noroeste 0 -- -- 97
2020-06-17 07:00:00 10.3 6 Noroeste 15 Norte 0 -- -- 98
2020-06-17 06:00:00 10.7 6 Noroeste 12 Norte 0 -- -- 97
2020-06-17 05:00:00 11.5 8 Norte 12 Norte 0 -- -- 95
2020-06-17 04:00:00 12.1 10 Noroeste 15 Norte 0 -- -- 93
2020-06-17 03:00:00 12.6 5 Norte 13 Norte 0 -- -- 93
2020-06-17 02:00:00 12.7 6 Norte 14 Norte 0 -- -- 94
2020-06-17 01:00:00 13.1 5 Norte 16 Noroeste 0 -- -- 93
2020-06-17 00:00:00 13.5 10 Noroeste 15 Norte 0 -- -- 94
2020-06-16 23:00:00 13.8 13 Norte 16 Norte 0 -- -- 94
2020-06-16 22:00:00 15 7 Norte 11 Este 0 -- -- 90
2020-06-16 21:00:00 17.1 5 Sur 9 Sur 0 -- -- 83
2020-06-16 20:00:00 16.9 7 Norte 13 Norte 0 -- -- 82
2020-06-16 19:00:00 17.6 4 Este 8 Sudeste 0.2 -- -- 81
2020-06-16 18:00:00 16.7 4 Nordeste 13 Sudeste 0.2 -- -- 87
2020-06-16 17:00:00 18.4 4 Sudoeste 13 Sudeste 0 -- -- 76
2020-06-16 16:00:00 17.8 10 Sudeste 15 Sur 0 -- -- 75
2020-06-16 15:00:00 16.6 12 Sudeste 15 Sudeste 0.2 -- -- 90
2020-06-16 14:00:00 15 9 Sudeste 15 Sudeste 0.6 -- -- 93
2020-06-16 13:00:00 15.4 4 Sudeste 9 Sudeste 0.2 -- -- 94
2020-06-16 12:00:00 15.2 0 Calma 8 Oeste 0.6 -- -- 87
2020-06-16 11:00:00 15.3 5 Oeste 9 Oeste 0 -- -- 90
2020-06-16 10:00:00 14.5 3 Oeste 8 Oeste 0.4 -- -- 94
2020-06-16 09:00:00 14.3 6 Oeste 8 Noroeste 0 -- -- 95
2020-06-16 08:00:00 13.9 0 Calma 19 Oeste 0.4 -- -- 94
2020-06-16 07:00:00 13.8 6 Oeste 12 Oeste 0.2 -- -- 93
2020-06-16 06:00:00 14.4 4 Oeste 8 Oeste 0.2 -- -- 87
2020-06-16 05:00:00 14.9 4 Norte 8 Noroeste 0 -- -- 78
2020-06-16 04:00:00 15 4 Noroeste 9 Norte 0 -- -- 75
2020-06-16 03:00:00 15.8 5 Norte 13 Norte 0 -- -- 72
2020-06-16 02:00:00 16.3 11 Norte 14 Norte 0 -- -- 69
2020-06-16 01:00:00 16.9 12 Norte 15 Norte 0 -- -- 64
2020-06-16 00:00:00 18 6 Oeste 19 Oeste 0 -- -- 60
2020-06-15 23:00:00 18.4 12 Oeste 19 Sudoeste 0 -- -- 57
2020-06-15 22:00:00 19.5 14 Oeste 21 Oeste 0 -- -- 53
2020-06-15 21:00:00 21.1 14 Oeste 27 Oeste 0 -- -- 46
2020-06-15 20:00:00 23.7 15 Oeste 32 Oeste 0 -- -- 41
2020-06-15 19:00:00 23.4 23 Oeste 36 Oeste 0 -- -- 43
2020-06-15 18:00:00 23.9 29 Oeste 43 Oeste 0 -- -- 40
2020-06-15 17:00:00 24.4 24 Oeste 36 Oeste 0 -- -- 41
2020-06-15 16:00:00 24.7 17 Oeste 31 Oeste 0 -- -- 43
2020-06-15 15:00:00 23.7 17 Oeste 30 Oeste 0 -- -- 44
2020-06-15 14:00:00 23.9 15 Oeste 28 Oeste 0 -- -- 45
2020-06-15 13:00:00 22.8 13 Sudoeste 30 Oeste 0 -- -- 46
2020-06-15 12:00:00 22.1 13 Sudeste 18 Sudeste 0 -- -- 50
2020-06-15 11:00:00 20.3 9 Sudeste 15 Sudeste 0 -- -- 60
2020-06-15 10:00:00 16.9 3 Sur 6 Sudeste 0 -- -- 74
2020-06-15 09:00:00 14.7 3 Norte 6 Norte 0 -- -- 78
2020-06-15 08:00:00 12.6 3 Noroeste 14 Noroeste 0 -- -- 83
2020-06-15 07:00:00 12 10 Norte 15 Norte 0 -- -- 84
2020-06-15 06:00:00 11.8 8 Norte 12 Norte 0 -- -- 85
2020-06-15 05:00:00 12.3 6 Noroeste 15 Norte 0 -- -- 83
2020-06-15 04:00:00 13 13 Noroeste 20 Norte 0 -- -- 80
2020-06-15 03:00:00 13.8 10 Norte 13 Norte 0 -- -- 80
2020-06-15 02:00:00 14.7 6 Noroeste 14 Norte 0 -- -- 77
2020-06-15 01:00:00 15.7 8 Norte 14 Norte 0 -- -- 73
2020-06-15 00:00:00 16.6 8 Norte 15 Norte 0 -- -- 70
2020-06-14 23:00:00 17.2 13 Norte 18 Norte 0 -- -- 67
2020-06-14 22:00:00 18.1 12 Norte 14 Norte 0 -- -- 63
2020-06-14 21:00:00 19.3 9 Norte 11 Norte 0 -- -- 55
2020-06-14 20:00:00 20.1 10 Noroeste 26 Oeste 0 -- -- 54
2020-06-14 19:00:00 21.4 2 Sudeste 6 Sudeste 0 -- -- 54
2020-06-14 18:00:00 22.2 4 Este 9 Sudoeste 0 -- -- 48
2020-06-14 17:00:00 22.4 6 Sur 12 Oeste 0 -- -- 52
2020-06-14 16:00:00 21.2 3 Nordeste 13 Nordeste 0 -- -- 51
2020-06-14 15:00:00 22.3 6 Este 12 Oeste 0 -- -- 53
2020-06-14 14:00:00 21.1 3 Sudeste 12 Sudeste 0 -- -- 54
2020-06-14 13:00:00 20.1 5 Sur 13 Sudeste 0 -- -- 57
2020-06-14 12:00:00 18.5 4 Sur 8 Sudeste 0 -- -- 55
2020-06-14 11:00:00 17.4 4 Sur 9 Noroeste 0 -- -- 63
2020-06-14 10:00:00 14.5 4 Noroeste 6 Noroeste 0 -- -- 77
2020-06-14 09:00:00 12.7 2 Sudoeste 12 Norte 0 -- -- 83
2020-06-14 08:00:00 11.4 6 Noroeste 13 Norte 0 -- -- 86
2020-06-14 07:00:00 11 7 Noroeste 13 Norte 0 -- -- 84
2020-06-14 06:00:00 10.6 8 Noroeste 14 Noroeste 0 -- -- 86
2020-06-14 05:00:00 10.4 4 Noroeste 11 Norte 0 -- -- 87
2020-06-14 04:00:00 11.4 3 Noroeste 12 Oeste 0 -- -- 82
2020-06-14 03:00:00 11.9 4 Norte 15 Norte 0 -- -- 80
2020-06-14 02:00:00 12.1 7 Noroeste 15 Norte 0 -- -- 82
2020-06-14 01:00:00 12.6 7 Norte 13 Norte 0 -- -- 78
2020-06-14 00:00:00 13.6 8 Norte 22 Norte 0 -- -- 73
2020-06-13 23:00:00 15.5 14 Norte 21 Noroeste 0 -- -- 65
2020-06-13 22:00:00 17.5 3 Noroeste 27 Oeste 0 -- -- 53
2020-06-13 21:00:00 19.5 17 Oeste 28 Oeste 0 -- -- 48
2020-06-13 20:00:00 20.9 21 Oeste 35 Oeste 0 -- -- 43
2020-06-13 19:00:00 22.2 20 Oeste 33 Oeste 0 -- -- 42
2020-06-13 18:00:00 21.8 17 Oeste 30 Oeste 0 -- -- 41
2020-06-13 17:00:00 22.1 19 Oeste 32 Oeste 0 -- -- 42
2020-06-13 16:00:00 21 9 Oeste 24 Oeste 0 -- -- 45
2020-06-13 15:00:00 20.8 7 Noroeste 24 Noroeste 0 -- -- 42
2020-06-13 14:00:00 20.4 17 Oeste 29 Oeste 0 -- -- 49
2020-06-13 13:00:00 19.8 10 Sudoeste 21 Oeste 0 -- -- 52
2020-06-13 12:00:00 18.9 10 Sudeste 14 Sudeste 0 -- -- 63
2020-06-13 11:00:00 17.2 5 Sur 12 Sur 0 -- -- 67
2020-06-13 10:00:00 14.8 6 Este 12 Nordeste 0 -- -- 79
2020-06-13 09:00:00 12.5 2 Oeste 7 Este 0 -- -- 90
2020-06-13 08:00:00 10.1 0 Calma 12 Oeste 0 -- -- 100
2020-06-13 07:00:00 9.4 3 Noroeste 10 Noroeste 0 -- -- 98
2020-06-13 06:00:00 9.8 4 Noroeste 8 Norte 0 -- -- 97
2020-06-13 05:00:00 10.3 0 Calma 12 Oeste 0 -- -- 95
2020-06-13 04:00:00 10.4 10 Oeste 13 Norte 0 -- -- 95
2020-06-13 03:00:00 10.8 8 Noroeste 14 Norte 0.6 -- -- 95
2020-06-13 02:00:00 11.3 10 Oeste 15 Oeste 1.2 -- -- 93
2020-06-13 01:00:00 11.8 10 Oeste 21 Noroeste 0 -- -- 87
2020-06-13 00:00:00 12.1 16 Noroeste 26 Noroeste 1.8 -- -- 83
2020-06-12 23:00:00 14.4 13 Noroeste 31 Oeste 0 -- -- 67
2020-06-12 22:00:00 15 9 Oeste 12 Noroeste 0 -- -- 76
2020-06-12 21:00:00 18.3 3 Norte 10 Este 0 -- -- 54
2020-06-12 20:00:00 18.3 5 Sur 13 Sudeste 0 -- -- 53
2020-06-12 19:00:00 18.8 7 Sudeste 14 Sudeste 0 -- -- 51
2020-06-12 18:00:00 19.4 11 Sudeste 15 Sudeste 0 -- -- 49
2020-06-12 17:00:00 17.4 8 Noroeste 20 Oeste 0 -- -- 58
2020-06-12 16:00:00 18.5 4 Sur 29 Sudeste 0 -- -- 52
2020-06-12 15:00:00 18.9 16 Sudeste 30 Sudeste 0 -- -- 55
2020-06-12 14:00:00 17.9 19 Sudeste 32 Sudeste 0 -- -- 53
2020-06-12 13:00:00 18.7 19 Sudeste 32 Sudeste 0 -- -- 53
2020-06-12 12:00:00 18.1 17 Sudeste 30 Sudeste 0 -- -- 53
2020-06-12 11:00:00 15.1 10 Sur 19 Sur 0 -- -- 67
2020-06-12 10:00:00 14.4 5 Nordeste 13 Este 0 -- -- 94
2020-06-12 09:00:00 12.5 3 Sur 9 Nordeste 0 -- -- 100
2020-06-12 08:00:00 11.8 2 Norte 9 Oeste 0 -- -- 100
2020-06-12 07:00:00 11.6 5 Sudoeste 6 Sudoeste 0 -- -- 99
2020-06-12 06:00:00 11.8 3 Oeste 7 Oeste 0 -- -- 99
2020-06-12 05:00:00 12 5 Norte 10 Norte 0 -- -- 99
2020-06-12 04:00:00 12.1 5 Oeste 12 Sudoeste 0.2 -- -- 99
2020-06-12 03:00:00 12.5 5 Nordeste 13 Sur 0.6 -- -- 98
2020-06-12 02:00:00 12.5 4 Este 18 Nordeste 2.2 -- -- 97
2020-06-12 01:00:00 12.8 4 Este 22 Sudoeste 1.2 -- -- 99
2020-06-12 00:00:00 12.9 4 Oeste 13 Norte 0 -- -- 98